Time;durP1;ratioP1;P1;durP2;ratioP2;P2;SDS_P1;SDS_P2;PMS_P1;PMS_P2;Temp;Humidity;BMP_temperature;BMP_pressure;BME280_temperature;BME280_humidity;BME280_pressure;Samples;Min_cycle;Max_cycle;Signal;HPM_P1;HPM_P2
2022/07/14 00:03:52;;;;;;;5.20;1.30;;;;;19.50;96668.00;;;;8287560;28;20583;-65
2022/07/14 00:07:56;;;;;;;2.55;1.17;;;;;19.50;96668.00;;;;8267508;28;20219;-66
2022/07/14 00:11:59;;;;;;;2.33;1.25;;;;;19.40;96672.00;;;;8284002;28;20332;-65
2022/07/14 00:16:02;;;;;;;2.10;1.10;;;;;19.20;96672.00;;;;8277653;28;20313;-66
2022/07/14 00:20:08;;;;;;;1.25;1.23;;;;;19.20;96676.00;;;;8277632;28;20240;-66
2022/07/14 00:24:11;;;;;;;1.40;1.17;;;;;19.20;96670.00;;;;8286290;28;20230;-66
2022/07/14 00:28:14;;;;;;;2.17;1.23;;;;;19.20;96662.00;;;;8284846;28;20817;-65
2022/07/14 00:32:18;;;;;;;2.25;1.38;;;;;19.20;96670.00;;;;8286409;28;20316;-66
2022/07/14 00:36:22;;;;;;;1.42;1.42;;;;;19.10;96676.00;;;;8284409;28;20233;-65
2022/07/14 00:40:26;;;;;;;9.60;1.60;;;;;19.20;96664.00;;;;8285350;28;20317;-65
2022/07/14 00:44:29;;;;;;;1.35;1.20;;;;;19.20;96660.00;;;;8279154;28;20233;-65
2022/07/14 00:48:32;;;;;;;8.50;1.55;;;;;19.30;96658.00;;;;8270814;28;20313;-65
2022/07/14 00:52:37;;;;;;;1.40;1.40;;;;;19.30;96657.00;;;;8279041;28;20685;-66
2022/07/14 00:56:40;;;;;;;4.10;1.60;;;;;19.30;96663.00;;;;8298685;28;20233;-66
2022/07/14 01:00:44;;;;;;;3.08;1.40;;;;;19.20;96658.00;;;;8289715;28;20230;-65
2022/07/14 01:04:48;;;;;;;4.55;1.60;;;;;19.20;96659.00;;;;8282341;28;20221;-66
2022/07/14 01:08:53;;;;;;;2.85;1.40;;;;;19.10;96663.00;;;;8285325;28;20236;-65
2022/07/14 01:12:59;;;;;;;2.67;1.40;;;;;19.00;96668.00;;;;8284181;28;20248;-65
2022/07/14 01:17:03;;;;;;;1.60;1.50;;;;;19.00;96649.00;;;;8275598;28;20687;-65
2022/07/14 01:21:09;;;;;;;2.25;1.50;;;;;18.90;96643.00;;;;8270769;28;20234;-65
2022/07/14 01:25:12;;;;;;;2.47;1.48;;;;;18.90;96637.00;;;;8285472;28;20818;-65
2022/07/14 01:29:16;;;;;;;2.63;1.48;;;;;18.80;96647.00;;;;8269468;28;20674;-65
2022/07/14 01:33:19;;;;;;;1.92;1.80;;;;;18.70;96652.00;;;;8283772;28;20243;-65
2022/07/14 01:37:24;;;;;;;1.90;1.80;;;;;18.70;96645.00;;;;8274235;28;20624;-65
2022/07/14 01:41:28;;;;;;;1.70;1.60;;;;;18.70;96638.00;;;;8279867;28;20233;-66
2022/07/14 01:45:32;;;;;;;1.90;1.50;;;;;18.70;96643.00;;;;8290800;28;20232;-66
2022/07/14 01:49:35;;;;;;;1.70;1.60;;;;;18.70;96639.00;;;;8277764;28;20241;-65
2022/07/14 01:53:41;;;;;;;1.63;1.40;;;;;18.80;96634.00;;;;8284283;28;20226;-65
2022/07/14 01:57:44;;;;;;;3.80;1.80;;;;;18.90;96626.00;;;;8278500;28;20756;-66
2022/07/14 02:01:47;;;;;;;3.28;1.60;;;;;19.00;96626.00;;;;8282620;28;20326;-64
2022/07/14 02:05:51;;;;;;;2.38;1.70;;;;;19.00;96625.00;;;;8271306;28;20320;-64
2022/07/14 02:14:17;;;;;;;1.33;1.30;;;;;19.10;96617.00;;;;8280720;28;20234;-64
2022/07/14 02:18:21;;;;;;;1.50;1.40;;;;;19.10;96619.00;;;;8275546;28;20301;-64
2022/07/14 02:22:24;;;;;;;3.30;1.50;;;;;19.20;96619.00;;;;8280147;28;20739;-64
2022/07/14 02:26:28;;;;;;;1.55;1.35;;;;;19.30;96613.00;;;;8282767;28;20225;-64
2022/07/14 02:30:32;;;;;;;1.40;1.40;;;;;19.30;96617.00;;;;8284742;28;20957;-65
2022/07/14 02:34:36;;;;;;;1.45;1.45;;;;;19.30;96617.00;;;;8277009;28;20228;-65
2022/07/14 02:38:39;;;;;;;1.60;1.50;;;;;19.30;96617.00;;;;8267507;28;20220;-65
2022/07/14 02:42:43;;;;;;;3.03;1.85;;;;;19.40;96611.00;;;;8258954;28;20702;-65
2022/07/14 02:46:46;;;;;;;2.03;1.83;;;;;19.40;96612.00;;;;8286158;28;20650;-64
2022/07/14 02:50:50;;;;;;;2.05;1.40;;;;;19.40;96619.00;;;;8289003;28;20866;-65
2022/07/14 02:54:53;;;;;;;2.05;1.70;;;;;19.40;96618.00;;;;8277395;28;20321;-64
2022/07/14 02:58:57;;;;;;;1.67;1.58;;;;;19.40;96620.00;;;;8269915;28;20240;-64
2022/07/14 03:03:01;;;;;;;1.55;1.55;;;;;19.30;96622.00;;;;8304766;22;20233;-64
2022/07/14 03:07:04;;;;;;;2.67;1.95;;;;;19.20;96623.00;;;;8308356;28;20225;-65
2022/07/14 03:11:08;;;;;;;1.70;1.48;;;;;19.20;96618.00;;;;8311828;28;20232;-65
2022/07/14 03:15:14;;;;;;;2.28;1.33;;;;;19.20;96625.00;;;;8321776;28;20332;-64
2022/07/14 03:19:17;;;;;;;2.35;1.52;;;;;19.10;96628.00;;;;8321350;28;20221;-64
2022/07/14 03:23:20;;;;;;;2.45;2.10;;;;;18.90;96611.00;;;;8308982;28;20715;-64
2022/07/14 03:27:24;;;;;;;3.65;1.83;;;;;18.80;96610.00;;;;8318266;28;20271;-64
2022/07/14 03:31:28;;;;;;;6.00;2.30;;;;;18.80;96613.00;;;;8313493;28;20235;-63
2022/07/14 03:35:31;;;;;;;4.18;2.50;;;;;18.60;96616.00;;;;8314542;28;20252;-64
2022/07/14 03:39:35;;;;;;;1.98;1.85;;;;;18.60;96612.00;;;;8321886;28;20221;-64
2022/07/14 03:43:38;;;;;;;4.50;2.17;;;;;18.40;96613.00;;;;8327681;28;20233;-64
2022/07/14 03:47:43;;;;;;;1.98;1.88;;;;;18.20;96611.00;;;;8313952;28;20788;-64
2022/07/14 03:51:49;;;;;;;2.08;1.85;;;;;18.10;96623.00;;;;8312664;28;20240;-63
2022/07/14 03:55:52;;;;;;;2.60;1.95;;;;;18.10;96624.00;;;;8311542;28;20746;-64
2022/07/14 03:59:55;;;;;;;1.88;1.77;;;;;18.10;96632.00;;;;8317981;28;20233;-64
2022/07/14 04:04:00;;;;;;;4.80;2.20;;;;;18.00;96629.00;;;;8300451;28;20704;-63
2022/07/14 04:08:04;;;;;;;2.10;2.00;;;;;18.10;96634.00;;;;8302696;28;20228;-64
2022/07/14 04:12:08;;;;;;;1.90;1.80;;;;;18.10;96639.00;;;;8309360;28;20746;-65
2022/07/14 04:16:11;;;;;;;1.75;1.65;;;;;18.20;96635.00;;;;8302685;28;20233;-66
2022/07/14 04:20:16;;;;;;;5.72;2.13;;;;;18.50;96633.00;;;;8302058;28;20873;-65
2022/07/14 04:24:20;;;;;;;1.80;1.70;;;;;18.80;96619.00;;;;8302195;28;20226;-64
2022/07/14 04:28:23;;;;;;;3.17;1.70;;;;;19.10;96610.00;;;;8306448;28;20231;-65
2022/07/14 04:32:27;;;;;;;1.95;1.80;;;;;19.20;96611.00;;;;8296103;28;20234;-65
2022/07/14 04:36:31;;;;;;;4.30;1.85;;;;;19.30;96615.00;;;;8307867;28;20225;-65
2022/07/14 04:40:35;;;;;;;3.22;1.80;;;;;19.50;96619.00;;;;8294603;28;20296;-65
2022/07/14 04:44:38;;;;;;;3.92;1.92;;;;;19.90;96619.00;;;;8312593;28;20696;-64
2022/07/14 04:53:14;;;;;;;3.13;1.80;;;;;20.80;96625.00;;;;8285403;28;20316;-65
2022/07/14 04:57:27;;;;;;;3.08;1.85;;;;;21.30;96629.00;;;;8279655;28;22778;-65
2022/07/14 05:01:35;;;;;;;4.90;1.90;;;;;21.80;96631.00;;;;8284458;28;20238;-65
2022/07/14 05:05:39;;;;;;;1.80;1.70;;;;;22.00;96630.00;;;;8276173;28;20225;-65
2022/07/14 05:09:44;;;;;;;1.50;1.40;;;;;22.50;96638.00;;;;8293299;28;20623;-65
2022/07/14 05:13:48;;;;;;;2.72;1.80;;;;;22.90;96638.00;;;;8280432;28;20230;-65
2022/07/14 05:17:52;;;;;;;1.52;1.50;;;;;23.20;96637.00;;;;8282542;28;20254;-65
2022/07/14 05:21:55;;;;;;;4.70;1.90;;;;;23.40;96634.00;;;;8290445;28;20230;-64
2022/07/14 05:25:59;;;;;;;3.15;1.80;;;;;23.80;96627.00;;;;8288176;28;20669;-64
2022/07/14 05:30:04;;;;;;;2.20;1.73;;;;;24.10;96640.00;;;;8294182;28;20244;-64
2022/07/14 05:34:07;;;;;;;1.95;1.70;;;;;24.40;96640.00;;;;8282575;28;20225;-65
2022/07/14 05:38:10;;;;;;;1.80;1.70;;;;;24.60;96646.00;;;;8278120;28;20655;-64
2022/07/14 05:42:15;;;;;;;3.60;1.52;;;;;24.70;96634.00;;;;8297981;28;20304;-65
2022/07/14 05:46:18;;;;;;;1.58;1.48;;;;;24.80;96631.00;;;;8306346;28;20225;-65
2022/07/14 05:50:22;;;;;;;2.35;1.50;;;;;25.00;96630.00;;;;8292613;28;20666;-65
2022/07/14 05:54:25;;;;;;;2.13;1.50;;;;;25.20;96632.00;;;;8312504;28;20650;-65
2022/07/14 05:58:30;;;;;;;1.75;1.70;;;;;25.60;96631.00;;;;8295627;28;20222;-65
2022/07/14 06:02:34;;;;;;;3.90;1.50;;;;;26.10;96638.00;;;;8299391;28;20244;-65
2022/07/14 06:06:37;;;;;;;1.40;1.30;;;;;26.50;96635.00;;;;8295607;28;20656;-64
2022/07/14 06:10:48;;;;;;;4.28;1.20;;;;;27.00;96644.00;;;;8297214;28;20234;-64
2022/07/14 06:14:57;;;;;;;1.73;1.33;;;;;27.60;96643.00;;;;8303817;28;20294;-65
2022/07/14 06:19:01;;;;;;;1.00;1.00;;;;;28.10;96649.00;;;;8307591;28;20236;-65
2022/07/14 06:23:09;;;;;;;1.60;1.50;;;;;28.30;96645.00;;;;8286072;28;20305;-65
2022/07/14 06:27:12;;;;;;;1.30;1.30;;;;;28.50;96644.00;;;;8303138;28;20337;-65
2022/07/14 06:31:17;;;;;;;2.47;1.45;;;;;28.60;96627.00;;;;8276876;28;20237;-66
2022/07/14 06:35:20;;;;;;;1.60;1.50;;;;;29.00;96637.00;;;;8292473;28;20774;-65
2022/07/14 06:39:23;;;;;;;1.50;1.50;;;;;29.60;96647.00;;;;8291211;28;20251;-66
2022/07/14 06:43:26;;;;;;;1.63;1.52;;;;;30.00;96642.00;;;;8281254;28;20236;-65
2022/07/14 06:47:31;;;;;;;2.50;1.50;;;;;30.40;96634.00;;;;8282153;28;20643;-65
2022/07/14 06:51:35;;;;;;;5.00;1.77;;;;;30.80;96631.00;;;;8296226;28;20701;-65
2022/07/14 06:55:38;;;;;;;1.73;1.63;;;;;31.10;96642.00;;;;8276956;28;20261;-66
2022/07/14 06:59:41;;;;;;;2.05;1.40;;;;;31.50;96630.00;;;;8279528;28;20752;-65
2022/07/14 07:03:46;;;;;;;3.88;1.73;;;;;31.90;96622.00;;;;8277505;28;20230;-66
2022/07/14 07:07:49;;;;;;;2.80;1.50;;;;;32.70;96617.00;;;;8279651;28;20280;-66
2022/07/14 07:11:52;;;;;;;2.97;1.45;;;;;33.30;96623.00;;;;8278841;28;20233;-68
2022/07/14 07:15:55;;;;;;;3.88;1.80;;;;;33.70;96625.00;;;;8284319;28;20253;-66
2022/07/14 07:20:01;;;;;;;3.75;1.35;;;;;34.10;96609.00;;;;8305725;28;20222;-68
2022/07/14 07:24:04;;;;;;;3.58;1.50;;;;;34.10;96614.00;;;;8276702;28;20278;-68
2022/07/14 07:28:08;;;;;;;2.13;1.40;;;;;34.30;96608.00;;;;8276569;28;20230;-68
2022/07/14 07:32:11;;;;;;;2.78;1.42;;;;;34.40;96605.00;;;;8278707;28;20321;-68
2022/07/14 07:36:16;;;;;;;2.92;1.58;;;;;34.60;96611.00;;;;8275940;28;20748;-68
2022/07/14 07:40:19;;;;;;;1.70;1.60;;;;;34.60;96612.00;;;;8273597;28;20218;-68
2022/07/14 07:44:22;;;;;;;4.60;1.60;;;;;35.10;96606.00;;;;8275941;28;20226;-68
2022/07/14 07:48:26;;;;;;;4.30;1.80;;;;;35.60;96602.00;;;;8275443;28;20226;-68
2022/07/14 07:52:31;;;;;;;4.10;1.70;;;;;35.90;96595.00;;;;8273459;28;20226;-68
2022/07/14 07:56:34;;;;;;;2.40;1.40;;;;;36.20;96588.00;;;;8276143;28;20719;-68
2022/07/14 08:00:37;;;;;;;1.60;1.50;;;;;36.30;96595.00;;;;8284049;28;20230;-67
2022/07/14 08:04:41;;;;;;;1.52;1.42;;;;;36.50;96583.00;;;;8279067;28;20313;-67
2022/07/14 08:08:45;;;;;;;2.22;1.42;;;;;36.80;96580.00;;;;8280838;28;20321;-67
2022/07/14 08:12:49;;;;;;;3.88;1.60;;;;;36.80;96577.00;;;;8274745;28;20257;-67
2022/07/14 08:16:52;;;;;;;2.42;1.45;;;;;36.80;96574.00;;;;8274736;28;20230;-68
2022/07/14 08:20:56;;;;;;;1.48;1.38;;;;;36.70;96571.00;;;;8282299;28;20223;-69
2022/07/14 08:25:01;;;;;;;4.93;1.80;;;;;37.00;96573.00;;;;8283844;28;20230;-68
2022/07/14 08:29:16;;;;;;;1.48;1.48;;;;;37.00;96568.00;;;;8303712;28;20804;-69
2022/07/14 08:33:19;;;;;;;3.53;1.60;;;;;37.30;96560.00;;;;8300280;28;20246;-68
2022/07/14 08:37:23;;;;;;;2.55;1.77;;;;;37.20;96570.00;;;;8300669;28;20222;-68
2022/07/14 08:41:28;;;;;;;1.33;1.23;;;;;36.80;96565.00;;;;8295123;28;20800;-68
2022/07/14 08:45:40;;;;;;;3.88;1.70;;;;;37.30;96558.00;;;;8296491;28;20228;-67
2022/07/14 08:49:45;;;;;;;4.03;1.52;;;;;38.00;96559.00;;;;8301394;28;20313;-67
2022/07/14 08:54:05;;;;;;;3.00;1.40;;;;;38.60;96559.00;;;;8304618;28;20229;-67
2022/07/14 08:58:10;;;;;;;2.50;1.40;;;;;39.20;96545.00;;;;8304399;28;20566;-73
2022/07/14 09:02:13;;;;;;;1.95;1.40;;;;;38.50;96543.00;;;;8300102;28;20233;-70
2022/07/14 09:06:52;;;;;;;3.47;1.40;;;;;37.90;96546.00;;;;8303575;28;20332;-70
2022/07/14 09:10:56;;;;;;;5.07;1.33;;;;;37.90;96552.00;;;;8299337;28;20275;-70
2022/07/14 09:19:29;;;;;;;2.30;1.40;;;;;38.00;96551.00;;;;8287744;28;20228;-70
2022/07/14 09:23:35;;;;;;;3.78;1.30;;;;;37.70;96541.00;;;;8307700;28;20229;-69
2022/07/14 09:27:39;;;;;;;3.13;1.80;;;;;37.30;96539.00;;;;8305758;28;20237;-69
2022/07/14 09:31:44;;;;;;;4.32;1.30;;;;;37.50;96536.00;;;;8305250;28;20332;-69
2022/07/14 09:35:47;;;;;;;3.70;1.50;;;;;37.70;96537.00;;;;8310317;28;20244;-68
2022/07/14 09:39:53;;;;;;;3.55;1.52;;;;;37.80;96530.00;;;;8299715;28;20236;-69
2022/07/14 09:44:11;;;;;;;8.32;1.60;;;;;37.80;96535.00;;;;8310663;28;20237;-69
2022/07/14 09:48:17;;;;;;;5.80;1.50;;;;;37.40;96527.00;;;;8298103;28;20225;-69
2022/07/14 09:52:32;;;;;;;3.33;1.10;;;;;37.00;96512.00;;;;8290849;28;20230;-69
2022/07/14 09:56:35;;;;;;;1.17;1.17;;;;;37.80;96503.00;;;;8279574;28;20656;-69
2022/07/14 10:00:39;;;;;;;1.33;1.33;;;;;38.30;96500.00;;;;8295323;28;20217;-69
2022/07/14 10:04:44;;;;;;;3.45;1.50;;;;;38.80;96496.00;;;;8300478;28;20288;-69
2022/07/14 10:08:57;;;;;;;1.88;1.42;;;;;38.80;96479.00;;;;8304562;28;20268;-69
2022/07/14 10:13:05;;;;;;;5.57;1.40;;;;;38.60;96483.00;;;;8305284;28;20225;-68
2022/07/14 10:17:16;;;;;;;1.90;1.50;;;;;39.20;96476.00;;;;8300058;28;20260;-68
2022/07/14 10:21:21;;;;;;;2.70;1.33;;;;;39.20;96475.00;;;;8292928;28;20741;-69
2022/07/14 10:25:25;;;;;;;4.15;1.73;;;;;39.50;96471.00;;;;8272591;28;20222;-69
2022/07/14 10:29:28;;;;;;;3.65;1.33;;;;;40.00;96457.00;;;;8268903;28;20239;-69
2022/07/14 10:33:41;;;;;;;3.08;1.48;;;;;40.40;96451.00;;;;8271605;28;20233;-69
2022/07/14 10:37:52;;;;;;;5.68;1.60;;;;;40.70;96456.00;;;;8277687;28;20252;-69
2022/07/14 10:42:05;;;;;;;5.65;1.60;;;;;40.80;96435.00;;;;8272701;28;20301;-68
2022/07/14 10:46:09;;;;;;;6.53;1.60;;;;;40.80;96431.00;;;;8285535;28;20229;-69
2022/07/14 10:50:13;;;;;;;2.00;1.50;;;;;40.80;96421.00;;;;8287518;28;20440;-68
2022/07/14 10:54:24;;;;;;;5.68;1.50;;;;;41.30;96413.00;;;;8277867;28;20234;-69
2022/07/14 10:58:46;;;;;;;1.42;1.42;;;;;41.00;96408.00;;;;8272266;28;20253;-69
2022/07/14 11:02:49;;;;;;;6.22;1.70;;;;;40.30;96405.00;;;;8273974;28;20241;-69
2022/07/14 11:07:32;;;;;;;3.80;1.50;;;;;39.90;96421.00;;;;8278864;28;20218;-70
2022/07/14 11:11:37;;;;;;;1.50;1.40;;;;;39.90;96397.00;;;;8271099;28;20290;-69
2022/07/14 11:15:41;;;;;;;1.50;1.40;;;;;39.70;96396.00;;;;8280564;28;20586;-69
2022/07/14 11:19:52;;;;;;;1.73;1.63;;;;;39.90;96396.00;;;;8280150;28;20272;-73
2022/07/14 11:23:55;;;;;;;2.35;1.40;;;;;39.90;96389.00;;;;8278834;28;20940;-73
2022/07/14 11:28:00;;;;;;;4.10;1.60;;;;;40.20;96377.00;;;;8295764;28;20639;-74
2022/07/14 11:32:03;;;;;;;1.33;1.33;;;;;40.00;96367.00;;;;8282166;28;20306;-72
2022/07/14 11:36:20;;;;;;;2.45;1.50;;;;;40.00;96374.00;;;;8279594;28;20693;-71
2022/07/14 11:40:47;;;;;;;1.77;1.60;;;;;39.90;96367.00;;;;8281085;28;20626;-72
2022/07/14 11:44:54;;;;;;;2.33;1.45;;;;;40.10;96361.00;;;;8295221;28;20702;-70
2022/07/14 11:49:00;;;;;;;9.35;2.50;;;;;40.20;96363.00;;;;8301131;28;20252;-70
2022/07/14 11:53:04;;;;;;;2.40;1.63;;;;;40.20;96343.00;;;;8287647;28;20332;-70
2022/07/14 11:57:09;;;;;;;2.00;1.70;;;;;40.20;96346.00;;;;8282692;28;20238;-70
2022/07/14 12:01:14;;;;;;;2.85;1.42;;;;;40.20;96350.00;;;;8294781;28;20318;-70
2022/07/14 12:05:18;;;;;;;1.73;1.60;;;;;40.00;96337.00;;;;8291384;28;20257;-70
2022/07/14 12:09:30;;;;;;;4.10;1.60;;;;;40.00;96323.00;;;;8283500;28;20225;-69
2022/07/14 12:13:50;;;;;;;3.88;1.60;;;;;40.20;96306.00;;;;8278707;28;20218;-70
2022/07/14 12:17:56;;;;;;;3.10;1.70;;;;;40.80;96306.00;;;;8290621;28;20222;-69
2022/07/14 12:22:00;;;;;;;3.15;1.75;;;;;40.60;96305.00;;;;8279840;28;20226;-69
2022/07/14 12:26:05;;;;;;;1.58;1.52;;;;;40.60;96299.00;;;;8276007;28;20229;-69
2022/07/14 12:30:09;;;;;;;2.38;1.30;;;;;40.40;96292.00;;;;8284892;28;20260;-70
2022/07/14 12:34:15;;;;;;;6.55;1.70;;;;;40.70;96278.00;;;;8280225;28;20222;-72
2022/07/14 12:38:19;;;;;;;2.08;1.40;;;;;40.70;96273.00;;;;8284673;28;20237;-69
2022/07/14 12:42:23;;;;;;;3.58;1.52;;;;;41.00;96274.00;;;;8271719;28;20732;-70
2022/07/14 12:46:26;;;;;;;2.05;1.42;;;;;41.00;96266.00;;;;8281685;28;20304;-72
2022/07/14 12:50:31;;;;;;;1.33;1.33;;;;;40.60;96258.00;;;;8288554;28;20233;-73
2022/07/14 12:54:35;;;;;;;1.40;1.30;;;;;39.80;96258.00;;;;8280018;28;20257;-73
2022/07/14 12:59:00;;;;;;;1.50;1.40;;;;;39.40;96249.00;;;;8302452;28;20638;-73
2022/07/14 13:03:14;;;;;;;1.63;1.45;;;;;39.00;96240.00;;;;8299395;28;20845;-73
2022/07/14 13:07:22;;;;;;;1.98;1.33;;;;;38.80;96243.00;;;;8297357;28;20716;-73
2022/07/14 13:11:30;;;;;;;1.52;1.42;;;;;38.70;96244.00;;;;8284580;28;20754;-73
2022/07/14 13:15:33;;;;;;;2.80;1.50;;;;;38.90;96232.00;;;;8299541;28;20228;-73
2022/07/14 13:19:36;;;;;;;6.72;1.60;;;;;39.50;96221.00;;;;8298831;28;20321;-73
2022/07/14 13:23:41;;;;;;;1.70;1.60;;;;;39.10;96234.00;;;;8298809;28;20236;-73
2022/07/14 13:27:45;;;;;;;1.45;1.35;;;;;38.70;96230.00;;;;8298373;28;20222;-74
2022/07/14 13:31:49;;;;;;;8.45;2.15;;;;;38.60;96215.00;;;;8296305;28;20228;-73
2022/07/14 13:35:58;;;;;;;2.45;1.35;;;;;39.60;96217.00;;;;8288098;28;20229;-73
2022/07/14 13:40:02;;;;;;;4.90;1.50;;;;;40.90;96210.00;;;;8305995;28;20235;-74
2022/07/14 13:44:06;;;;;;;1.70;1.60;;;;;40.90;96222.00;;;;8303667;28;21028;-74
2022/07/14 13:48:10;;;;;;;5.55;1.80;;;;;40.30;96230.00;;;;8304246;28;20237;-73
2022/07/14 13:52:13;;;;;;;5.40;1.90;;;;;39.40;96211.00;;;;8293105;28;20240;-74
2022/07/14 13:56:17;;;;;;;3.00;2.25;;;;;39.90;96221.00;;;;8286717;28;20706;-73
2022/07/14 14:00:21;;;;;;;2.53;1.67;;;;;39.40;96220.00;;;;8295729;28;20260;-73
2022/07/14 14:04:24;;;;;;;3.60;1.60;;;;;38.60;96218.00;;;;8312132;28;20237;-73
2022/07/14 14:08:30;;;;;;;4.97;1.60;;;;;38.90;96216.00;;;;8298512;28;20837;-73
2022/07/14 14:12:36;;;;;;;3.60;1.70;;;;;39.60;96205.00;;;;8265585;28;20225;-74
2022/07/14 14:16:39;;;;;;;4.50;1.52;;;;;40.20;96205.00;;;;8268069;28;20235;-74
2022/07/14 14:20:50;;;;;;;1.75;1.42;;;;;40.10;96216.00;;;;8276833;28;21227;-75
2022/07/14 14:24:54;;;;;;;2.80;1.30;;;;;39.60;96201.00;;;;8278080;28;20252;-74
2022/07/14 14:28:58;;;;;;;5.72;1.50;;;;;39.30;96211.00;;;;8274139;28;20877;-76
2022/07/14 14:33:02;;;;;;;1.60;1.50;;;;;38.90;96204.00;;;;8273424;28;20230;-74
2022/07/14 14:37:08;;;;;;;7.03;1.70;;;;;38.50;96201.00;;;;8271050;28;20317;-73
2022/07/14 14:41:11;;;;;;;3.15;1.50;;;;;37.90;96201.00;;;;8274311;28;20217;-73
2022/07/14 14:45:17;;;;;;;1.88;1.75;;;;;37.70;96197.00;;;;8269505;28;20259;-72
2022/07/14 14:49:20;;;;;;;3.13;1.50;;;;;37.80;96197.00;;;;8276067;28;20256;-72
2022/07/14 14:53:24;;;;;;;2.72;1.33;;;;;37.50;96191.00;;;;8279683;28;20226;-72
2022/07/14 14:57:27;;;;;;;1.77;1.55;;;;;37.10;96193.00;;;;8274769;28;20225;-73
2022/07/14 15:01:32;;;;;;;1.58;1.48;;;;;37.00;96199.00;;;;8288440;28;20332;-73
2022/07/14 15:05:36;;;;;;;2.28;1.70;;;;;37.00;96194.00;;;;8297427;28;20303;-72
2022/07/14 15:09:39;;;;;;;4.35;1.73;;;;;37.30;96177.00;;;;8292872;28;20237;-72
2022/07/14 15:13:43;;;;;;;3.97;1.60;;;;;38.20;96177.00;;;;8314258;28;20947;-72
2022/07/14 15:17:47;;;;;;;1.98;1.45;;;;;38.90;96155.00;;;;8311668;28;20280;-72
2022/07/14 15:21:50;;;;;;;4.43;1.73;;;;;39.10;96178.00;;;;8293392;28;20226;-72
2022/07/14 15:25:54;;;;;;;1.70;1.63;;;;;38.80;96181.00;;;;8300898;28;20279;-73
2022/07/14 15:29:58;;;;;;;2.35;1.52;;;;;37.90;96167.00;;;;8302184;28;20307;-72
2022/07/14 15:34:03;;;;;;;5.07;1.70;;;;;37.30;96157.00;;;;8298417;28;20237;-72
2022/07/14 15:38:09;;;;;;;2.95;1.65;;;;;36.90;96145.00;;;;8280021;28;20230;-71
2022/07/14 15:42:16;;;;;;;4.65;1.42;;;;;36.80;96147.00;;;;8283539;28;20264;-73
2022/07/14 15:46:19;;;;;;;7.30;1.75;;;;;37.10;96147.00;;;;8306237;28;20218;-73
2022/07/14 15:50:25;;;;;;;5.95;1.88;;;;;36.90;96141.00;;;;8288685;28;20231;-72
2022/07/14 15:54:30;;;;;;;2.22;1.80;;;;;37.00;96142.00;;;;8302887;28;20664;-72
2022/07/14 15:58:33;;;;;;;4.10;1.75;;;;;37.50;96135.00;;;;8281770;28;20760;-73
2022/07/14 16:02:37;;;;;;;5.43;1.70;;;;;37.80;96127.00;;;;8289345;28;20249;-72
2022/07/14 16:06:42;;;;;;;3.25;1.77;;;;;37.30;96133.00;;;;8282047;28;20317;-72
2022/07/14 16:10:45;;;;;;;4.50;1.45;;;;;36.90;96132.00;;;;8285580;28;20229;-73
2022/07/14 16:14:48;;;;;;;2.55;1.70;;;;;36.70;96121.00;;;;8283385;28;20218;-73
2022/07/14 16:18:52;;;;;;;3.92;1.70;;;;;36.60;96117.00;;;;8301872;28;20308;-72
2022/07/14 16:22:57;;;;;;;9.18;2.00;;;;;36.30;96117.00;;;;8302487;28;20236;-72
2022/07/14 16:27:00;;;;;;;3.13;2.30;;;;;35.60;96128.00;;;;8303349;28;20319;-72
2022/07/14 16:31:06;;;;;;;4.72;2.00;;;;;35.10;96123.00;;;;8301319;28;20961;-71
2022/07/14 16:35:10;;;;;;;4.30;2.10;;;;;34.60;96118.00;;;;8307803;28;20291;-71
2022/07/14 16:39:14;;;;;;;2.17;2.00;;;;;34.30;96111.00;;;;8304905;28;20830;-72
2022/07/14 16:43:18;;;;;;;4.22;1.90;;;;;34.00;96113.00;;;;8306755;28;20312;-72
2022/07/14 16:47:22;;;;;;;2.72;1.80;;;;;33.90;96105.00;;;;8277448;28;21042;-72
2022/07/14 16:51:27;;;;;;;9.07;2.30;;;;;33.70;96106.00;;;;8268959;28;20258;-73
2022/07/14 16:55:32;;;;;;;2.15;1.60;;;;;33.50;96103.00;;;;8280912;28;20227;-75
2022/07/14 16:59:35;;;;;;;7.80;2.03;;;;;33.40;96099.00;;;;8277985;28;20308;-74
2022/07/14 17:03:41;;;;;;;3.53;1.98;;;;;33.10;96098.00;;;;8281092;28;20260;-75
2022/07/14 17:07:44;;;;;;;10.13;1.80;;;;;33.00;96090.00;;;;8278072;28;20245;-76
2022/07/14 17:11:49;;;;;;;3.30;1.60;;;;;33.00;96097.00;;;;8275821;28;20226;-77
2022/07/14 17:15:52;;;;;;;6.68;1.88;;;;;32.90;96106.00;;;;8278781;28;20232;-75
2022/07/14 17:19:55;;;;;;;7.53;1.90;;;;;33.00;96097.00;;;;8281989;28;20235;-76
2022/07/14 17:23:59;;;;;;;4.75;2.10;;;;;33.00;96095.00;;;;8277727;28;20237;-74
2022/07/14 17:28:04;;;;;;;4.13;2.17;;;;;33.10;96102.00;;;;8272966;28;20255;-75
2022/07/14 17:32:08;;;;;;;2.67;2.40;;;;;32.90;96100.00;;;;8267389;28;20272;-76
2022/07/14 17:36:11;;;;;;;3.85;2.58;;;;;33.00;96103.00;;;;8274753;28;20229;-76
2022/07/14 17:40:15;;;;;;;5.05;2.35;;;;;33.70;96104.00;;;;8272746;28;20224;-75
2022/07/14 17:44:29;;;;;;;3.10;1.95;;;;;34.10;96114.00;;;;8265103;28;20237;-75
2022/07/14 17:48:32;;;;;;;3.72;2.53;;;;;33.40;96114.00;;;;8271049;28;20317;-75
2022/07/14 17:52:36;;;;;;;9.45;2.45;;;;;33.00;96123.00;;;;8272155;28;20238;-75
2022/07/14 17:56:39;;;;;;;6.95;2.30;;;;;32.40;96131.00;;;;8275100;28;20248;-75
2022/07/14 18:00:44;;;;;;;3.92;2.53;;;;;32.00;96125.00;;;;8274057;28;20305;-74
2022/07/14 18:04:47;;;;;;;6.47;2.83;;;;;31.60;96142.00;;;;8283111;28;20308;-75
2022/07/14 18:08:50;;;;;;;4.18;2.40;;;;;31.20;96143.00;;;;8283766;28;20727;-76
2022/07/14 18:12:53;;;;;;;7.25;2.70;;;;;30.70;96143.00;;;;8278006;28;20222;-75
2022/07/14 18:16:58;;;;;;;6.95;2.85;;;;;30.30;96157.00;;;;8272745;28;20240;-75
2022/07/14 18:21:01;;;;;;;2.28;2.10;;;;;29.90;96163.00;;;;8269376;28;20232;-75
2022/07/14 18:25:07;;;;;;;5.95;2.60;;;;;29.60;96163.00;;;;8273957;28;20234;-75
2022/07/14 18:29:12;;;;;;;5.43;2.80;;;;;29.40;96165.00;;;;8272393;28;20750;-73
2022/07/14 18:33:17;;;;;;;6.63;2.70;;;;;29.30;96173.00;;;;8273325;28;20921;-73
2022/07/14 18:37:20;;;;;;;4.18;2.50;;;;;29.20;96190.00;;;;8280973;28;20837;-75
2022/07/14 18:41:23;;;;;;;3.38;2.50;;;;;29.10;96193.00;;;;8268591;28;20588;-73
2022/07/14 18:49:49;;;;;;;7.88;3.05;;;;;28.70;96240.00;;;;8283906;28;20305;-75
2022/07/14 18:53:52;;;;;;;8.57;2.90;;;;;28.10;96252.00;;;;8275875;28;20679;-74
2022/07/14 18:57:57;;;;;;;4.95;3.17;;;;;27.50;96258.00;;;;8276485;28;20237;-74
2022/07/14 19:02:04;;;;;;;4.45;3.30;;;;;26.90;96260.00;;;;8277262;28;20240;-74
2022/07/14 19:06:09;;;;;;;8.80;3.00;;;;;26.50;96273.00;;;;8278037;28;20234;-74
2022/07/14 19:10:13;;;;;;;5.68;3.10;;;;;26.20;96273.00;;;;8276522;28;20305;-73
2022/07/14 19:14:16;;;;;;;4.57;2.67;;;;;26.00;96274.00;;;;8273362;28;20222;-74
2022/07/14 19:18:20;;;;;;;7.47;2.97;;;;;25.80;96278.00;;;;8277668;28;20344;-75
2022/07/14 19:22:25;;;;;;;5.05;3.22;;;;;25.70;96310.00;;;;8275628;28;20221;-75
2022/07/14 19:26:29;;;;;;;8.82;3.38;;;;;24.30;96323.00;;;;8271468;28;20828;-72
2022/07/14 19:30:32;;;;;;;4.65;3.30;;;;;22.10;96325.00;;;;8268454;28;20250;-73
2022/07/14 19:34:36;;;;;;;4.22;3.05;;;;;21.40;96333.00;;;;8275796;28;20240;-77
2022/07/14 19:38:41;;;;;;;4.47;2.50;;;;;21.40;96341.00;;;;8277362;28;20232;-75
2022/07/14 19:42:44;;;;;;;5.53;3.08;;;;;21.60;96349.00;;;;8274549;28;20318;-73
2022/07/14 19:46:48;;;;;;;6.95;2.85;;;;;21.80;96354.00;;;;8278562;28;20304;-75
2022/07/14 19:50:51;;;;;;;3.25;2.50;;;;;22.00;96392.00;;;;8276432;28;20218;-74
2022/07/14 19:54:56;;;;;;;6.43;2.80;;;;;22.30;96378.00;;;;8278321;28;20984;-74
2022/07/14 19:59:00;;;;;;;3.35;3.00;;;;;22.60;96372.00;;;;8279727;28;20794;-73
2022/07/14 20:03:04;;;;;;;4.20;2.53;;;;;22.90;96389.00;;;;8278444;28;20238;-74
2022/07/14 20:07:08;;;;;;;3.38;2.40;;;;;23.00;96414.00;;;;8281844;28;20807;-74
2022/07/14 20:11:12;;;;;;;6.85;2.78;;;;;23.20;96411.00;;;;8280074;28;20702;-73
2022/07/14 20:15:17;;;;;;;3.50;2.78;;;;;23.20;96417.00;;;;8277133;28;20297;-73
2022/07/14 20:19:20;;;;;;;7.30;3.60;;;;;23.20;96417.00;;;;8270715;28;20226;-73
2022/07/14 20:23:24;;;;;;;4.45;3.15;;;;;23.20;96410.00;;;;8272003;28;20607;-75
2022/07/14 20:36:15;;;;;;;3.58;3.10;;;;;22.90;96422.00;;;;8273830;28;20219;-70
2022/07/14 20:40:18;;;;;;;3.78;3.45;;;;;22.80;96405.00;;;;8277246;28;20302;-69
2022/07/14 20:44:25;;;;;;;3.53;3.22;;;;;22.70;96413.00;;;;8271882;28;20229;-70
2022/07/14 20:48:28;;;;;;;5.57;3.60;;;;;22.70;96419.00;;;;8280457;28;20222;-70
2022/07/14 20:52:31;;;;;;;4.00;3.05;;;;;22.70;96429.00;;;;8288592;28;20218;-71
2022/07/14 20:56:34;;;;;;;4.88;3.20;;;;;22.60;96430.00;;;;8283805;28;20244;-70